Time;durP1;ratioP1;P1;durP2;ratioP2;P2;SDS_P1;SDS_P2;PMS_P1;PMS_P2;Temp;Humidity;BMP_temperature;BMP_pressure;BME280_temperature;BME280_humidity;BME280_pressure;Samples;Min_cycle;Max_cycle;Signal;HPM_P1;HPM_P2
2023/05/16 00:00:51;;;;;;;;;3.50;1.50;;;;;22.41;41.08;101418.88;5062375;28;47178;-75
2023/05/16 00:03:18;;;;;;;;;3.75;2.50;;;;;22.39;41.62;101417.28;5074829;27;45508;-75
2023/05/16 00:05:43;;;;;;;;;2.25;1.75;;;;;22.36;41.22;101421.84;5074817;27;45554;-75
2023/05/16 00:08:08;;;;;;;;;2.50;2.50;;;;;22.39;41.39;101418.13;5066230;27;45559;-73
2023/05/16 00:10:34;;;;;;;;;2.00;1.25;;;;;22.40;41.39;101418.97;5066382;28;61548;-74
2023/05/16 00:13:00;;;;;;;;;1.25;1.25;;;;;22.39;41.21;101423.47;5049303;28;45777;-74
2023/05/16 00:15:26;;;;;;;;;3.00;1.25;;;;;22.37;41.01;101423.56;5071671;27;45620;-74
2023/05/16 00:17:56;;;;;;;;;1.50;1.00;;;;;22.37;41.35;101423.56;5090187;27;45577;-74
2023/05/16 00:20:23;;;;;;;;;3.00;2.50;;;;;22.34;40.81;101423.75;5052830;28;47519;-75
2023/05/16 00:22:49;;;;;;;;;1.50;1.50;;;;;22.36;41.48;101420.97;5065504;27;45656;-74
2023/05/16 00:25:14;;;;;;;;;0.25;0.25;;;;;22.35;41.41;101424.63;5072364;27;45385;-75
2023/05/16 00:27:39;;;;;;;;;2.00;0.00;;;;;22.36;41.24;101416.53;5071611;27;45576;-75
2023/05/16 00:30:06;;;;;;;;;1.50;1.25;;;;;22.36;41.17;101424.53;5073886;27;68169;-75
2023/05/16 00:32:31;;;;;;;;;1.75;1.25;;;;;22.34;40.89;101422.91;5093910;27;45827;-75
2023/05/16 00:34:57;;;;;;;;;2.00;2.00;;;;;22.33;41.13;101422.06;5070054;27;56443;-75
2023/05/16 00:37:23;;;;;;;;;2.50;2.00;;;;;22.31;41.14;101417.75;5071714;27;45432;-74
2023/05/16 00:39:48;;;;;;;;;0.25;0.25;;;;;22.33;41.16;101422.06;5069920;27;46291;-74
2023/05/16 00:42:14;;;;;;;;;1.25;0.25;;;;;22.32;41.07;101412.31;5071739;27;67486;-75
2023/05/16 00:44:40;;;;;;;;;2.50;1.00;;;;;22.33;41.11;101427.38;5052481;28;45399;-74
2023/05/16 00:47:05;;;;;;;;;2.00;2.00;;;;;22.34;40.81;101418.41;5060999;27;45524;-74
2023/05/16 00:49:30;;;;;;;;;2.00;2.00;;;;;22.33;40.77;101422.06;5055248;28;54381;-75
2023/05/16 00:51:57;;;;;;;;;2.00;1.00;;;;;22.32;40.78;101412.31;5069678;27;45281;-75
2023/05/16 00:54:25;;;;;;;;;0.25;0.25;;;;;22.33;41.00;101416.72;5072028;27;45435;-75
2023/05/16 00:56:50;;;;;;;;;0.75;0.00;;;;;22.30;40.76;101416.91;5057289;27;45847;-75
2023/05/16 00:59:16;;;;;;;;;0.75;0.75;;;;;22.30;40.88;101411.56;5070436;28;47308;-75
2023/05/16 01:01:45;;;;;;;;;3.50;1.00;;;;;22.30;41.05;101416.91;5055146;27;45396;-74
2023/05/16 01:04:11;;;;;;;;;3.00;2.25;;;;;22.30;40.87;101419.56;5061399;28;45492;-74
2023/05/16 01:06:36;;;;;;;;;1.00;0.25;;;;;22.29;40.89;101414.34;5070840;28;45287;-74
2023/05/16 01:09:02;;;;;;;;;2.00;1.00;;;;;22.30;40.55;101424.91;5073693;27;48013;-74
2023/05/16 01:11:34;;;;;;;;;1.25;0.25;;;;;22.29;40.59;101422.34;5067220;28;47069;-74
2023/05/16 01:14:28;;;;;;;;;2.25;1.00;;;;;22.30;40.95;101426.72;5071616;27;45533;-74
2023/05/16 01:17:14;;;;;;;;;3.50;1.00;;;;;22.27;40.67;101419.78;5048134;28;45589;-74
2023/05/16 01:19:46;;;;;;;;;3.00;1.00;;;;;22.31;40.99;101423.09;5078018;27;45339;-75
2023/05/16 01:22:36;;;;;;;;;1.00;0.25;;;;;22.28;41.04;101416.16;5073196;27;45940;-75
2023/05/16 01:25:06;;;;;;;;;2.00;1.00;;;;;22.29;40.40;101417.88;5072854;27;45324;-75
2023/05/16 01:27:33;;;;;;;;;3.25;0.25;;;;;22.28;40.51;101423.31;5060374;28;45446;-74
2023/05/16 01:29:58;;;;;;;;;1.00;1.00;;;;;22.29;40.93;101417.00;5069747;27;47086;-74
2023/05/16 01:32:24;;;;;;;;;2.50;1.50;;;;;22.28;40.82;101423.31;5068414;27;47490;-74
2023/05/16 01:34:50;;;;;;;;;1.50;1.00;;;;;22.25;40.71;101419.00;5071960;27;45452;-74
2023/05/16 01:37:23;;;;;;;;;0.25;0.00;;;;;22.27;40.51;101422.44;5049560;28;45505;-75
2023/05/16 01:39:56;;;;;;;;;4.00;1.00;;;;;22.27;40.82;101422.44;5061922;28;46846;-74
2023/05/16 01:42:23;;;;;;;;;3.00;1.00;;;;;22.26;40.47;101427.88;5069719;27;45547;-74
2023/05/16 01:44:59;;;;;;;;;0.25;0.00;;;;;22.25;40.56;101429.66;5080737;27;45578;-74
2023/05/16 01:47:26;;;;;;;;;6.75;1.00;;;;;22.26;40.37;101431.38;5075183;27;45427;-74
2023/05/16 01:50:09;;;;;;;;;2.25;1.75;;;;;22.22;40.17;101426.34;5064425;28;46342;-74
2023/05/16 01:52:41;;;;;;;;;1.75;1.00;;;;;22.24;40.11;101422.63;5067908;27;45358;-74
2023/05/16 01:55:11;;;;;;;;;1.00;1.00;;;;;22.23;40.53;101431.56;5071265;27;45457;-74
2023/05/16 01:57:37;;;;;;;;;2.75;0.25;;;;;22.24;40.57;101433.28;5062907;27;45507;-75
2023/05/16 02:00:03;;;;;;;;;1.00;1.00;;;;;22.22;40.57;101435.19;5055448;28;73455;-74
2023/05/16 02:02:30;;;;;;;;;0.50;0.25;;;;;22.23;40.41;101430.72;5071983;27;45394;-74
2023/05/16 02:04:55;;;;;;;;;1.75;1.75;;;;;22.23;40.57;101439.56;5074937;28;45508;-73
2023/05/16 02:07:20;;;;;;;;;1.50;1.00;;;;;22.22;40.59;101440.50;5067702;28;70156;-73
2023/05/16 02:09:46;;;;;;;;;0.25;0.25;;;;;22.22;40.52;101437.00;5071274;27;55130;-74
2023/05/16 02:12:11;;;;;;;;;2.25;1.00;;;;;22.23;40.34;101436.06;5058803;28;75007;-73
2023/05/16 02:14:36;;;;;;;;;4.00;0.25;;;;;22.22;40.16;101431.66;5067383;27;45270;-74
2023/05/16 02:17:02;;;;;;;;;1.00;0.25;;;;;22.20;40.03;101429.09;5054359;28;56026;-73
2023/05/16 02:19:27;;;;;;;;;0.25;0.25;;;;;22.21;40.36;101430.81;5074129;28;70541;-73
2023/05/16 02:21:53;;;;;;;;;2.75;1.00;;;;;22.19;40.57;101436.25;5071912;27;45449;-74
2023/05/16 02:24:18;;;;;;;;;0.75;0.75;;;;;22.20;40.13;101426.44;5074146;28;45474;-74
2023/05/16 02:26:44;;;;;;;;;1.25;0.00;;;;;22.20;40.07;101437.09;5052598;28;74807;-74
2023/05/16 02:29:09;;;;;;;;;1.00;1.00;;;;;22.20;40.09;101434.44;5056295;28;45445;-73
2023/05/16 02:31:35;;;;;;;;;3.75;1.00;;;;;22.19;40.23;101438.91;5070170;27;45804;-73
2023/05/16 02:34:01;;;;;;;;;1.00;1.00;;;;;22.20;40.10;101437.09;5071062;27;45658;-73
2023/05/16 02:36:26;;;;;;;;;4.00;1.00;;;;;22.19;40.41;101430.06;5072239;27;45522;-73
2023/05/16 02:38:52;;;;;;;;;1.25;0.00;;;;;22.19;39.98;101438.91;5057293;28;67180;-73
2023/05/16 02:41:17;;;;;;;;;1.00;0.25;;;;;22.21;39.87;101443.31;5074121;28;45407;-73
2023/05/16 02:43:43;;;;;;;;;0.75;0.75;;;;;22.19;40.02;101438.06;5070153;27;45715;-73
2023/05/16 02:46:26;;;;;;;;;2.25;1.00;;;;;22.19;40.50;101436.25;5074796;28;45366;-73
2023/05/16 02:48:52;;;;;;;;;2.00;2.00;;;;;22.18;40.38;101442.53;5069934;28;46082;-73
2023/05/16 02:51:19;;;;;;;;;0.25;0.25;;;;;22.19;39.86;101443.41;5062700;27;45336;-73
2023/05/16 02:53:45;;;;;;;;;0.75;0.00;;;;;22.16;39.85;101444.44;5061002;28;46477;-73
2023/05/16 02:56:10;;;;;;;;;1.50;1.00;;;;;22.17;39.72;101438.16;5069476;27;45536;-73
2023/05/16 02:58:35;;;;;;;;;2.75;1.00;;;;;22.17;40.01;101448.81;5069498;27;58535;-74
2023/05/16 03:01:01;;;;;;;;;2.75;0.00;;;;;22.15;39.59;101440.06;5058370;27;48621;-74
2023/05/16 03:03:26;;;;;;;;;1.00;0.75;;;;;22.15;40.30;101444.53;5072323;27;45326;-73
2023/05/16 03:05:52;;;;;;;;;1.00;0.50;;;;;22.16;40.19;101443.59;5067361;28;45783;-73
2023/05/16 03:08:17;;;;;;;;;2.00;0.25;;;;;22.14;39.55;101451.69;5055351;27;47260;-73
2023/05/16 03:10:42;;;;;;;;;0.75;0.75;;;;;22.16;40.28;101449.78;5071676;27;46112;-73
2023/05/16 03:13:08;;;;;;;;;0.50;0.50;;;;;22.16;39.55;101451.59;5059658;28;55404;-73
2023/05/16 03:15:33;;;;;;;;;0.50;0.50;;;;;22.15;39.89;101452.53;5072611;27;45412;-73
2023/05/16 03:17:59;;;;;;;;;0.50;0.50;;;;;22.13;39.50;101455.31;5069590;28;46468;-74
2023/05/16 03:20:24;;;;;;;;;2.00;0.50;;;;;22.15;39.53;101460.53;5066587;27;45426;-75
2023/05/16 03:22:50;;;;;;;;;3.00;0.00;;;;;22.15;39.64;101460.53;5070485;27;53936;-75
2023/05/16 03:25:15;;;;;;;;;3.00;1.00;;;;;22.14;40.10;101450.84;5068858;27;71424;-74
2023/05/16 03:27:41;;;;;;;;;0.00;0.00;;;;;22.15;40.15;101463.19;5082244;27;45405;-74
2023/05/16 03:30:07;;;;;;;;;1.00;1.00;;;;;22.10;39.39;101452.84;5080188;28;45499;-74
2023/05/16 03:32:32;;;;;;;;;1.50;0.00;;;;;22.14;39.67;101470.34;5089631;27;45445;-74
2023/05/16 03:34:58;;;;;;;;;1.50;1.50;;;;;22.12;39.84;101461.59;5075747;27;45356;-75
2023/05/16 03:37:23;;;;;;;;;1.00;1.00;;;;;22.12;39.84;101476.75;5071964;27;45453;-74
2023/05/16 03:39:49;;;;;;;;;3.25;1.00;;;;;22.13;39.63;101478.44;5048491;28;45443;-74
2023/05/16 03:42:16;;;;;;;;;1.00;1.00;;;;;22.13;39.57;101475.78;5077456;27;45373;-74
2023/05/16 03:44:41;;;;;;;;;0.75;0.75;;;;;22.12;39.66;101484.75;5068277;27;45745;-73
2023/05/16 03:47:06;;;;;;;;;0.00;0.00;;;;;22.12;39.84;101487.41;5074193;27;75795;-74
2023/05/16 03:49:32;;;;;;;;;1.75;1.00;;;;;22.13;40.01;101489.09;5075184;28;45474;-74
2023/05/16 03:51:57;;;;;;;;;1.75;0.25;;;;;22.11;39.66;101483.00;5072959;27;51209;-74
2023/05/16 03:54:23;;;;;;;;;3.00;1.00;;;;;22.10;39.53;101495.50;5071527;27;45288;-74
2023/05/16 03:56:48;;;;;;;;;1.25;0.00;;;;;22.11;39.78;101493.69;5068174;28;45554;-75
2023/05/16 03:59:14;;;;;;;;;1.75;0.00;;;;;22.11;39.43;101488.34;5073947;27;45445;-75
2023/05/16 04:01:39;;;;;;;;;0.25;0.00;;;;;22.10;39.78;101495.50;5076520;27;45371;-75
2023/05/16 04:04:05;;;;;;;;;0.25;0.25;;;;;22.10;39.38;101491.97;5056789;28;45817;-75
2023/05/16 04:06:30;;;;;;;;;2.25;0.00;;;;;22.09;39.59;101491.09;5071790;27;69388;-75
2023/05/16 04:08:56;;;;;;;;;2.50;0.25;;;;;22.10;39.54;101503.50;5074245;28;45506;-74
2023/05/16 04:11:21;;;;;;;;;0.50;0.25;;;;;22.06;39.35;101494.00;5071293;28;45809;-74
2023/05/16 04:13:46;;;;;;;;;0.75;0.75;;;;;22.05;39.77;101497.59;5069632;27;70197;-74
2023/05/16 04:16:12;;;;;;;;;1.75;0.75;;;;;22.07;39.44;101495.69;5072308;27;73009;-74
2023/05/16 04:18:37;;;;;;;;;1.25;0.25;;;;;22.10;39.36;101507.97;5079879;27;66698;-75
2023/05/16 04:21:03;;;;;;;;;2.00;2.00;;;;;22.07;39.66;101514.34;5073984;27;68835;-73
2023/05/16 04:23:28;;;;;;;;;2.00;0.25;;;;;22.08;39.12;101513.41;5059368;28;45482;-73
2023/05/16 04:25:55;;;;;;;;;2.00;1.00;;;;;22.08;39.73;101517.84;5067439;27;46133;-74
2023/05/16 04:28:21;;;;;;;;;1.00;1.00;;;;;22.07;39.10;101510.84;5074363;27;45522;-74
2023/05/16 04:30:47;;;;;;;;;0.00;0.00;;;;;22.08;39.05;101512.53;5056279;28;45514;-74
2023/05/16 04:33:12;;;;;;;;;3.75;1.00;;;;;22.07;39.56;101517.00;5055147;28;46414;-75
2023/05/16 04:35:38;;;;;;;;;2.00;0.75;;;;;22.08;39.28;101516.06;5061330;28;47793;-75
2023/05/16 04:38:04;;;;;;;;;1.50;1.00;;;;;22.08;39.63;101517.84;5057485;28;48358;-75
2023/05/16 04:40:29;;;;;;;;;1.25;0.00;;;;;22.07;39.12;101526.81;5074319;27;45404;-73
2023/05/16 04:42:54;;;;;;;;;0.50;0.50;;;;;22.06;39.58;101522.44;5074498;27;45331;-73
2023/05/16 04:45:20;;;;;;;;;3.00;0.25;;;;;22.03;39.43;101518.16;5069606;27;46579;-74
2023/05/16 04:47:46;;;;;;;;;4.00;1.00;;;;;22.04;39.15;101529.69;5066638;27;45387;-73
2023/05/16 04:50:11;;;;;;;;;1.25;0.00;;;;;22.04;39.51;101519.84;5074823;27;45424;-74
2023/05/16 04:52:37;;;;;;;;;2.00;0.25;;;;;22.07;39.53;101524.16;5072611;27;45241;-74
2023/05/16 04:55:03;;;;;;;;;1.25;0.00;;;;;22.06;39.11;101528.63;5057497;28;47369;-74
2023/05/16 04:57:28;;;;;;;;;0.25;0.25;;;;;22.04;39.40;101521.69;5059146;28;45567;-74
2023/05/16 04:59:53;;;;;;;;;1.75;0.25;;;;;22.07;39.19;101537.50;5069323;28;45244;-75
2023/05/16 05:02:19;;;;;;;;;0.25;0.25;;;;;22.04;39.13;101535.84;5054396;28;45897;-74
2023/05/16 05:04:44;;;;;;;;;1.25;1.00;;;;;22.05;39.61;101534.06;5077146;27;45564;-74
2023/05/16 05:07:10;;;;;;;;;1.50;0.50;;;;;22.04;39.20;101541.19;5054676;28;45443;-74
2023/05/16 05:09:35;;;;;;;;;1.25;0.00;;;;;22.07;39.03;101548.16;5068976;28;69055;-74
2023/05/16 05:12:00;;;;;;;;;0.25;0.25;;;;;22.05;39.45;101539.41;5076794;27;62531;-74
2023/05/16 05:14:26;;;;;;;;;1.00;0.25;;;;;22.04;39.43;101548.34;5059057;28;47732;-74
2023/05/16 05:16:51;;;;;;;;;0.00;0.00;;;;;22.04;39.14;101545.66;5085637;27;45592;-74
2023/05/16 05:19:16;;;;;;;;;1.75;1.00;;;;;22.05;39.36;101547.41;5065660;27;66144;-74
2023/05/16 05:21:41;;;;;;;;;0.25;0.25;;;;;22.04;39.38;101548.34;5076979;27;45342;-74
2023/05/16 05:24:07;;;;;;;;;1.75;1.00;;;;;22.07;39.12;101561.47;5064822;28;62621;-74
2023/05/16 05:26:32;;;;;;;;;0.00;0.00;;;;;22.04;39.50;101551.00;5055892;28;45470;-76
2023/05/16 05:28:57;;;;;;;;;1.75;0.00;;;;;22.07;39.08;101553.47;5062811;27;45452;-72
2023/05/16 05:31:23;;;;;;;;;1.00;0.00;;;;;22.03;39.15;101552.81;5075653;27;45718;-79
2023/05/16 05:33:48;;;;;;;;;1.25;1.25;;;;;22.06;39.39;101565.09;5069496;27;46896;-74
2023/05/16 05:36:15;;;;;;;;;4.00;2.75;;;;;22.04;38.69;101557.19;5077048;27;54493;-77
2023/05/16 05:38:40;;;;;;;;;2.00;2.00;;;;;22.01;38.83;101560.06;5065664;27;45374;-80
2023/05/16 05:41:06;;;;;;;;;1.75;1.00;;;;;22.00;38.27;101563.66;5070199;27;69125;-85
2023/05/16 05:43:31;;;;;;;;;3.50;1.00;;;;;21.94;38.20;101556.06;5055670;28;47415;-84
2023/05/16 05:45:57;;;;;;;;;2.00;2.00;;;;;21.91;38.06;101570.41;5060093;28;45368;-86
2023/05/16 05:48:22;;;;;;;;;5.50;2.75;;;;;21.84;38.01;101569.06;5051492;28;45233;-87
2023/05/16 05:50:48;;;;;;;;;14.00;11.25;;;;;21.78;37.81;101570.31;5064474;27;62449;-85
2023/05/16 05:53:13;;;;;;;;;16.00;16.00;;;;;21.75;37.92;101570.50;5070968;27;55012;-85
2023/05/16 05:55:41;;;;;;;;;20.75;17.50;;;;;21.72;37.89;101575.16;5051519;28;50965;-75
2023/05/16 05:58:06;;;;;;;;;15.25;12.25;;;;;21.66;37.82;101568.41;5056317;28;45486;-82
2023/05/16 06:00:31;;;;;;;;;17.00;12.75;;;;;21.67;37.89;101586.06;5051956;28;45910;-82
2023/05/16 06:02:57;;;;;;;;;12.00;11.00;;;;;21.54;37.94;101567.31;5069646;28;52454;-86
2023/05/16 06:05:22;;;;;;;;;10.75;9.50;;;;;21.57;37.82;101568.97;5069708;28;45533;-85
2023/05/16 06:07:48;;;;;;;;;9.75;7.50;;;;;21.54;37.54;101571.78;5063665;28;45602;-78
2023/05/16 06:10:13;;;;;;;;;10.25;7.00;;;;;21.54;37.81;101577.97;5085542;27;45798;-85
2023/05/16 06:12:38;;;;;;;;;6.25;5.25;;;;;21.48;37.61;101580.13;5070042;28;45482;-81
2023/05/16 06:15:04;;;;;;;;;7.00;5.25;;;;;21.49;37.41;101579.19;5077035;27;46018;-83
2023/05/16 06:17:30;;;;;;;;;11.50;6.00;;;;;21.42;37.70;101582.22;5071178;27;45538;-83
2023/05/16 06:19:55;;;;;;;;;5.75;5.00;;;;;21.41;37.71;101592.94;5055946;28;63788;-83
2023/05/16 06:22:20;;;;;;;;;4.00;4.00;;;;;21.39;37.04;101584.19;5073380;27;58240;-83
2023/05/16 06:24:46;;;;;;;;;3.00;2.00;;;;;21.36;37.20;101593.22;5061012;27;45927;-83
2023/05/16 06:27:11;;;;;;;;;8.00;4.00;;;;;21.32;37.02;101591.69;5061957;28;45799;-83
2023/05/16 06:29:36;;;;;;;;;4.75;2.25;;;;;21.26;37.35;101578.72;5075495;27;52630;-82
2023/05/16 06:32:02;;;;;;;;;5.00;2.25;;;;;21.26;37.23;101593.84;5058018;28;47185;-78
2023/05/16 06:34:27;;;;;;;;;2.50;2.25;;;;;21.24;37.04;101589.44;5072501;27;45943;-77
2023/05/16 06:36:53;;;;;;;;;5.75;2.00;;;;;21.24;36.68;101592.09;5067092;27;45463;-77
2023/05/16 06:39:19;;;;;;;;;4.00;3.00;;;;;21.21;36.81;101602.97;5058409;28;45876;-75
2023/05/16 06:41:44;;;;;;;;;3.50;2.00;;;;;21.22;37.29;101595.81;5067873;27;45456;-75
2023/05/16 06:44:10;;;;;;;;;2.50;1.75;;;;;21.22;37.67;101596.66;5071878;27;64471;-76
2023/05/16 06:46:36;;;;;;;;;3.50;2.00;;;;;21.23;37.61;101597.56;5057608;28;45435;-78
2023/05/16 06:49:01;;;;;;;;;3.75;1.75;;;;;21.24;37.54;101602.75;5069556;27;45512;-73
2023/05/16 06:51:27;;;;;;;;;4.50;2.00;;;;;21.25;37.34;101595.66;5076874;27;45407;-80
2023/05/16 06:53:52;;;;;;;;;4.75;2.50;;;;;21.24;37.68;101592.09;5071296;27;45404;-77
2023/05/16 06:56:17;;;;;;;;;1.50;1.50;;;;;21.32;38.06;101609.44;5058703;28;45580;-80
2023/05/16 06:58:43;;;;;;;;;2.75;1.00;;;;;21.30;38.24;101596.25;5073006;27;45347;-79
2023/05/16 07:01:08;;;;;;;;;2.25;2.00;;;;;21.34;38.07;101605.75;5077932;28;74756;-77
2023/05/16 07:03:33;;;;;;;;;2.50;1.25;;;;;21.36;38.28;101597.69;5069394;27;74002;-80
2023/05/16 07:05:59;;;;;;;;;3.75;1.00;;;;;21.37;38.13;101605.59;5075132;27;59084;-78
2023/05/16 07:08:24;;;;;;;;;2.50;1.75;;;;;21.38;38.27;101604.63;5074271;27;65381;-78
2023/05/16 07:10:50;;;;;;;;;1.25;1.00;;;;;21.41;38.45;101611.59;5056793;28;48034;-78
2023/05/16 07:13:15;;;;;;;;;2.75;1.50;;;;;21.42;37.96;101610.63;5072072;27;45334;-78
2023/05/16 07:15:40;;;;;;;;;1.00;1.00;;;;;21.43;38.33;101613.19;5067213;27;45367;-77
2023/05/16 07:18:06;;;;;;;;;1.25;1.25;;;;;21.43;37.88;101617.69;5072076;27;67918;-77
2023/05/16 07:20:31;;;;;;;;;2.50;1.00;;;;;21.41;38.36;101614.25;5071607;27;64667;-77
2023/05/16 07:22:58;;;;;;;;;7.00;1.00;;;;;21.45;38.53;101614.94;5054748;27;45281;-77
2023/05/16 07:25:23;;;;;;;;;2.75;1.00;;;;;21.45;38.22;101617.59;5052505;27;45383;-77
2023/05/16 07:27:52;;;;;;;;;3.50;2.00;;;;;21.43;38.02;101620.34;5073756;27;45417;-77
2023/05/16 07:30:17;;;;;;;;;3.50;1.00;;;;;21.45;38.50;101630.91;5053767;28;47121;-77
2023/05/16 07:32:42;;;;;;;;;1.25;0.00;;;;;21.42;38.03;101621.28;5070732;28;71970;-77
2023/05/16 07:35:08;;;;;;;;;2.25;1.00;;;;;21.43;38.46;101626.50;5075301;27;45504;-77
2023/05/16 07:37:34;;;;;;;;;1.75;1.00;;;;;21.44;37.92;101635.34;5054769;28;45501;-77
2023/05/16 07:40:00;;;;;;;;;1.00;1.00;;;;;21.41;38.40;101632.91;5077192;27;46125;-77
2023/05/16 07:42:26;;;;;;;;;2.75;1.00;;;;;21.40;38.35;101640.00;5077113;27;45366;-77
2023/05/16 07:44:51;;;;;;;;;3.00;1.00;;;;;21.42;38.59;101632.81;5062347;28;45549;-77
2023/05/16 07:47:16;;;;;;;;;1.00;1.00;;;;;21.40;38.23;101640.00;5067781;27;49520;-77
2023/05/16 07:49:42;;;;;;;;;1.00;0.50;;;;;21.35;38.55;101634.09;5068563;27;70780;-77
2023/05/16 07:52:07;;;;;;;;;1.50;1.00;;;;;21.41;38.43;101631.06;5071016;27;45422;-77
2023/05/16 07:54:34;;;;;;;;;2.00;2.00;;;;;21.41;38.72;101632.91;5077832;27;45279;-77
2023/05/16 07:56:59;;;;;;;;;4.00;1.00;;;;;21.39;38.77;101634.78;5072042;27;45304;-77
2023/05/16 07:59:24;;;;;;;;;1.75;1.00;;;;;21.38;38.36;101628.59;5057335;28;46847;-77
2023/05/16 08:01:50;;;;;;;;;1.00;1.00;;;;;21.39;38.49;101627.66;5080140;27;50485;-77
2023/05/16 08:04:15;;;;;;;;;2.00;0.75;;;;;21.35;38.41;101623.44;5058401;27;45438;-77
2023/05/16 08:06:41;;;;;;;;;4.75;2.00;;;;;21.38;38.97;101630.41;5055946;28;45478;-77
2023/05/16 08:09:07;;;;;;;;;0.00;0.00;;;;;21.35;38.46;101626.09;5071753;27;46345;-77
2023/05/16 08:11:33;;;;;;;;;1.00;0.00;;;;;21.37;38.63;101628.66;5053694;28;45737;-77
2023/05/16 08:13:58;;;;;;;;;1.00;1.00;;;;;21.35;38.44;101627.91;5061101;27;45524;-77
2023/05/16 08:16:23;;;;;;;;;1.75;1.00;;;;;21.33;38.71;101629.81;5096458;27;65061;-77
2023/05/16 08:18:49;;;;;;;;;2.00;0.25;;;;;21.35;38.67;101630.56;5065673;27;56185;-77
2023/05/16 08:21:15;;;;;;;;;3.50;0.75;;;;;21.35;39.02;101630.56;5069444;28;45364;-76
2023/05/16 08:23:40;;;;;;;;;2.00;1.00;;;;;21.33;38.30;101632.47;5085355;27;45382;-77
2023/05/16 08:26:06;;;;;;;;;1.50;0.00;;;;;21.34;38.57;101637.72;5062703;28;56872;-77
2023/05/16 08:28:32;;;;;;;;;3.00;0.00;;;;;21.32;39.03;101631.63;5058514;28;47089;-77
2023/05/16 08:30:57;;;;;;;;;0.00;0.00;;;;;21.30;38.57;101627.31;5082379;27;45268;-77
2023/05/16 08:33:23;;;;;;;;;0.25;0.25;;;;;21.28;38.84;101624.75;5073751;27;45450;-76
2023/05/16 08:35:51;;;;;;;;;0.75;0.25;;;;;21.31;38.72;101631.72;5079344;27;45430;-77
2023/05/16 08:38:16;;;;;;;;;1.00;1.00;;;;;21.30;38.90;101638.84;5057140;28;47930;-77
2023/05/16 08:40:42;;;;;;;;;2.25;0.00;;;;;21.31;38.95;101631.72;5074714;27;68735;-77
2023/05/16 08:43:07;;;;;;;;;1.50;1.00;;;;;21.29;38.82;101631.78;5083061;27;67020;-77
2023/05/16 08:45:33;;;;;;;;;6.25;1.00;;;;;21.28;38.74;101630.06;5059214;28;45513;-77
2023/05/16 08:48:04;;;;;;;;;0.25;0.25;;;;;21.30;38.78;101630.84;5070520;28;46939;-77
2023/05/16 08:50:32;;;;;;;;;0.25;0.25;;;;;21.28;38.98;101626.56;5062841;28;45411;-77
2023/05/16 08:53:05;;;;;;;;;1.00;0.75;;;;;21.28;38.88;101630.06;5049851;27;45444;-77
2023/05/16 08:55:31;;;;;;;;;1.50;1.00;;;;;21.27;38.99;101627.50;5072205;28;45473;-77
2023/05/16 08:57:57;;;;;;;;;3.75;0.00;;;;;21.26;38.54;101634.63;5071547;27;46534;-77
2023/05/16 09:00:23;;;;;;;;;3.00;1.00;;;;;21.28;38.85;101634.53;5059636;28;74356;-77
2023/05/16 09:02:48;;;;;;;;;1.75;0.00;;;;;21.28;38.67;101621.22;5071804;28;45437;-77
2023/05/16 09:05:15;;;;;;;;;2.50;0.25;;;;;21.25;38.47;101630.25;5060840;28;45589;-77
2023/05/16 09:07:42;;;;;;;;;0.00;0.00;;;;;21.26;38.39;101623.97;5051850;28;48203;-77
2023/05/16 09:10:08;;;;;;;;;0.00;0.00;;;;;21.26;38.87;101628.44;5058702;28;45246;-78
2023/05/16 09:12:33;;;;;;;;;2.00;0.00;;;;;21.24;38.54;101632.03;5069939;27;45291;-78
2023/05/16 09:15:03;;;;;;;;;1.00;0.00;;;;;21.26;38.74;101639.09;5074467;27;45446;-78
2023/05/16 09:17:42;;;;;;;;;0.00;0.00;;;;;21.24;38.54;101636.53;5052930;28;46496;-78
2023/05/16 09:20:12;;;;;;;;;0.75;0.00;;;;;21.26;38.95;101641.75;5056890;28;45301;-78
2023/05/16 09:22:38;;;;;;;;;0.50;0.50;;;;;21.24;38.67;101637.38;5077305;28;45718;-78
2023/05/16 09:25:04;;;;;;;;;0.00;0.00;;;;;21.24;38.99;101640.03;5062249;28;45476;-78
2023/05/16 09:27:30;;;;;;;;;1.50;0.00;;;;;21.24;39.07;101639.19;5070586;27;45615;-78
2023/05/16 09:29:56;;;;;;;;;0.00;0.00;;;;;21.24;38.58;101634.72;5068864;27;45516;-77
2023/05/16 09:32:23;;;;;;;;;0.50;0.00;;;;;21.25;39.02;101638.25;5076995;28;45476;-78
2023/05/16 09:34:50;;;;;;;;;2.00;1.00;;;;;21.22;38.43;101633.94;5072150;28;45462;-78
2023/05/16 09:37:16;;;;;;;;;0.50;0.00;;;;;21.24;38.60;101634.72;5075806;27;46132;-78
2023/05/16 09:39:50;;;;;;;;;2.00;0.25;;;;;21.24;39.06;101640.03;5074789;28;45369;-78
2023/05/16 09:42:17;;;;;;;;;1.50;1.00;;;;;21.23;38.79;101646.31;5082817;27;45859;-78
2023/05/16 09:44:47;;;;;;;;;2.25;0.25;;;;;21.24;39.26;101644.50;5069137;27;45458;-78
2023/05/16 09:47:20;;;;;;;;;0.25;0.25;;;;;21.25;39.13;101640.91;5055957;27;47144;-78
2023/05/16 09:49:47;;;;;;;;;0.25;0.00;;;;;21.24;39.17;101636.53;5080004;27;45576;-77
2023/05/16 09:52:13;;;;;;;;;1.75;1.00;;;;;21.24;38.92;101644.50;5074011;27;45260;-77
2023/05/16 09:54:39;;;;;;;;;3.50;0.25;;;;;21.25;39.28;101640.91;5052277;28;45411;-77
2023/05/16 09:57:04;;;;;;;;;0.75;0.50;;;;;21.21;38.92;101634.03;5085235;27;60642;-77
2023/05/16 09:59:34;;;;;;;;;1.00;0.00;;;;;21.22;38.78;101639.25;5060483;28;45415;-77
2023/05/16 10:01:59;;;;;;;;;0.00;0.00;;;;;21.22;39.02;101636.59;5089152;27;45446;-77
2023/05/16 10:04:27;;;;;;;;;3.00;0.00;;;;;21.23;39.06;101643.66;5070131;27;70576;-76
2023/05/16 10:06:56;;;;;;;;;0.25;0.00;;;;;21.23;38.68;101630.34;5056500;27;47615;-76
2023/05/16 10:09:24;;;;;;;;;2.50;0.00;;;;;21.20;38.74;101624.34;5054814;27;45793;-76
2023/05/16 10:11:52;;;;;;;;;2.00;0.00;;;;;21.25;38.81;101638.25;5068390;28;45520;-77
2023/05/16 10:14:18;;;;;;;;;0.00;0.00;;;;;21.23;39.14;101626.84;5069836;28;45642;-77
2023/05/16 10:16:46;;;;;;;;;2.00;0.75;;;;;21.21;38.80;101616.28;5057402;28;46877;-76
2023/05/16 10:19:11;;;;;;;;;0.75;0.00;;;;;21.23;39.15;101634.81;5062852;28;45697;-77
2023/05/16 10:21:37;;;;;;;;;0.50;0.00;;;;;21.26;39.12;101636.44;5054913;28;45463;-77
2023/05/16 10:24:06;;;;;;;;;0.00;0.00;;;;;21.23;39.03;101629.50;5077213;28;45434;-77
2023/05/16 10:26:31;;;;;;;;;2.00;0.50;;;;;21.22;38.87;101631.28;5055276;28;47278;-77
2023/05/16 10:28:57;;;;;;;;;0.50;0.50;;;;;21.24;38.76;101631.19;5070568;28;45619;-76
2023/05/16 10:31:23;;;;;;;;;0.75;0.75;;;;;21.21;39.38;101626.91;5073918;27;45300;-77
2023/05/16 10:33:49;;;;;;;;;3.50;0.00;;;;;21.15;38.91;101607.78;5075192;27;45259;-77
2023/05/16 10:36:15;;;;;;;;;0.50;0.50;;;;;21.15;39.04;101611.28;5073779;28;47210;-77
2023/05/16 10:38:41;;;;;;;;;1.50;1.00;;;;;21.23;39.39;101624.16;5063959;27;45700;-77
2023/05/16 10:41:07;;;;;;;;;2.25;0.25;;;;;21.24;39.05;101628.53;5058971;28;45516;-76
2023/05/16 10:43:32;;;;;;;;;1.00;0.00;;;;;21.23;39.32;101619.69;5055567;28;45400;-77
2023/05/16 10:46:04;;;;;;;;;0.25;0.00;;;;;21.26;39.32;101618.66;5067487;28;49849;-76
2023/05/16 10:48:34;;;;;;;;;1.00;1.00;;;;;21.23;39.25;101621.50;5058061;28;45749;-77
2023/05/16 10:51:02;;;;;;;;;0.75;0.00;;;;;21.24;38.86;101628.53;5049182;27;45445;-77
2023/05/16 10:53:34;;;;;;;;;0.25;0.00;;;;;21.24;39.44;101631.19;5071472;28;45515;-77
2023/05/16 10:56:00;;;;;;;;;0.75;0.00;;;;;21.26;39.09;101631.97;5063094;27;45610;-77
2023/05/16 10:58:37;;;;;;;;;0.50;0.50;;;;;21.26;38.93;101628.44;5063986;27;45395;-77
2023/05/16 11:01:26;;;;;;;;;0.00;0.00;;;;;21.26;38.91;101625.78;5075683;28;45291;-77
2023/05/16 11:04:00;;;;;;;;;2.00;1.00;;;;;21.27;39.08;101627.50;5072364;27;45501;-76
2023/05/16 11:06:26;;;;;;;;;0.00;0.00;;;;;21.27;39.35;101628.38;5069460;28;47830;-77
2023/05/16 11:09:12;;;;;;;;;0.00;0.00;;;;;21.23;38.83;101616.19;5056210;28;45607;-77
2023/05/16 11:11:45;;;;;;;;;0.25;0.25;;;;;21.27;39.03;101616.88;5090521;27;45672;-77
2023/05/16 11:14:36;;;;;;;;;2.25;1.00;;;;;21.23;39.48;101617.03;5076252;27;45480;-77
2023/05/16 11:17:35;;;;;;;;;2.00;0.75;;;;;21.27;39.15;101625.69;5078325;28;47930;-77
2023/05/16 11:20:02;;;;;;;;;0.50;0.00;;;;;21.25;39.25;101614.28;5053668;27;45744;-77
2023/05/16 11:22:28;;;;;;;;;0.00;0.00;;;;;21.27;39.26;101622.19;5077391;28;45356;-78